createdAt,value
2022-09-19T00:00:04.837Z,51.216000
2022-09-19T00:01:04.848Z,51.215977
2022-09-19T00:02:04.951Z,51.215939
2022-09-19T00:03:04.877Z,51.215965
2022-09-19T00:04:04.887Z,51.215996
2022-09-19T00:05:04.805Z,51.216076
2022-09-19T00:06:04.809Z,51.216000
2022-09-19T00:07:04.797Z,51.216034
2022-09-19T00:08:04.810Z,51.216045
2022-09-19T00:09:04.793Z,51.216125
2022-09-19T00:10:04.797Z,51.216129
2022-09-19T00:11:04.761Z,51.216072
2022-09-19T00:12:04.856Z,51.216145
2022-09-19T00:13:04.753Z,51.216095
2022-09-19T00:14:04.745Z,51.216099
2022-09-19T00:15:04.761Z,51.215988
2022-09-19T00:16:04.767Z,51.216080
2022-09-19T00:17:04.725Z,51.216095
2022-09-19T00:18:04.724Z,51.216114
2022-09-19T00:19:04.916Z,51.216057
2022-09-19T00:20:04.776Z,51.216125
2022-09-19T00:21:04.697Z,51.216007
2022-09-19T00:22:04.696Z,51.215878
2022-09-19T00:23:04.682Z,51.215893
2022-09-19T00:24:04.665Z,51.215862
2022-09-19T00:25:04.676Z,51.215889
2022-09-19T00:26:04.684Z,51.215881
2022-09-19T00:27:04.686Z,51.215969
2022-09-19T00:28:04.746Z,51.216057
2022-09-19T00:29:04.648Z,51.216110
2022-09-19T00:30:04.631Z,51.216087
2022-09-19T00:31:04.734Z,51.216133
2022-09-19T00:32:04.631Z,51.216026
2022-09-19T00:33:04.618Z,51.216007
2022-09-19T00:34:04.706Z,51.216026
2022-09-19T00:35:04.592Z,51.216034
2022-09-19T00:36:04.585Z,51.216133
2022-09-19T00:37:04.608Z,51.216164
2022-09-19T00:38:04.585Z,51.216068
2022-09-19T00:39:04.571Z,51.216095
2022-09-19T00:40:04.621Z,51.216015
2022-09-19T00:41:04.564Z,51.216026
2022-09-19T00:42:04.600Z,51.216103
2022-09-19T00:43:04.553Z,51.216122
2022-09-19T00:44:04.640Z,51.216087
2022-09-19T00:45:04.535Z,51.216095
2022-09-19T00:46:04.593Z,51.216053
2022-09-19T00:47:04.548Z,51.216118
2022-09-19T00:48:04.524Z,51.216114
2022-09-19T00:49:04.591Z,51.216145
2022-09-19T00:50:04.520Z,51.216061
2022-09-19T00:51:04.500Z,51.216030
2022-09-19T00:52:04.492Z,51.216114
2022-09-19T00:53:04.487Z,51.216141
2022-09-19T00:54:04.479Z,51.216114
2022-09-19T00:55:04.479Z,51.216091
2022-09-19T00:56:04.463Z,51.216148
2022-09-19T00:57:04.463Z,51.216160
2022-09-19T00:58:04.451Z,51.216076
2022-09-19T00:59:04.452Z,51.216064
2022-09-19T01:00:04.549Z,51.216145
2022-09-19T01:01:04.473Z,51.216026
2022-09-19T01:02:04.428Z,51.215900
2022-09-19T01:03:04.440Z,51.215946
2022-09-19T01:04:04.495Z,51.216053
2022-09-19T01:05:04.424Z,51.216164
2022-09-19T01:06:04.399Z,51.216106
2022-09-19T01:07:04.388Z,51.216190
2022-09-19T01:08:04.388Z,51.216080
2022-09-19T01:09:04.376Z,51.216103
2022-09-19T01:10:04.380Z,51.216084
2022-09-19T01:11:04.361Z,51.216217
2022-09-19T01:12:04.364Z,51.216171
2022-09-19T01:13:04.349Z,51.216061
2022-09-19T01:14:04.340Z,51.216011
2022-09-19T01:15:04.351Z,51.216026
2022-09-19T01:16:04.464Z,51.215965
2022-09-19T01:17:04.351Z,51.216011
2022-09-19T01:18:04.320Z,51.215862
2022-09-19T01:19:04.372Z,51.216076
2022-09-19T01:20:04.323Z,51.216194
2022-09-19T01:21:04.304Z,51.216351
2022-09-19T01:22:04.292Z,51.216236
2022-09-19T01:23:04.284Z,51.216137
2022-09-19T01:24:04.279Z,51.216225
2022-09-19T01:25:04.275Z,51.216160
2022-09-19T01:26:04.271Z,51.216213
2022-09-19T01:27:04.254Z,51.216278
2022-09-19T01:28:04.247Z,51.216389
2022-09-19T01:29:04.240Z,51.216206
2022-09-19T01:30:04.234Z,51.216469
2022-09-19T01:31:04.255Z,51.216793
2022-09-19T01:32:04.317Z,51.217220
2022-09-19T01:33:04.231Z,51.216972
2022-09-19T01:34:04.428Z,51.217255
2022-09-19T01:35:04.198Z,51.217133
2022-09-19T01:36:04.227Z,51.216843
2022-09-19T01:37:04.191Z,51.216713
2022-09-19T01:38:04.186Z,51.216434
2022-09-19T01:39:04.195Z,51.216373
2022-09-19T01:40:04.190Z,51.216339
2022-09-19T01:41:04.163Z,51.216320
2022-09-19T01:42:04.182Z,51.216343
2022-09-19T01:43:04.150Z,51.216225
2022-09-19T01:44:04.146Z,51.216095
2022-09-19T01:45:04.140Z,51.216217
2022-09-19T01:46:04.177Z,51.216171
2022-09-19T01:47:04.135Z,51.216362
2022-09-19T01:48:04.209Z,51.216290
2022-09-19T01:49:04.169Z,51.215511
2022-09-19T01:50:04.094Z,51.216331
2022-09-19T01:51:04.094Z,51.216015
2022-09-19T01:52:04.086Z,51.215775
2022-09-19T01:53:04.086Z,51.216240
2022-09-19T01:54:04.078Z,51.216080
2022-09-19T01:55:04.066Z,51.216248
2022-09-19T01:56:04.059Z,51.216347
2022-09-19T01:57:04.058Z,51.216347
2022-09-19T01:58:04.055Z,51.216263
2022-09-19T01:59:04.030Z,51.215469
2022-09-19T02:00:04.026Z,51.216263
2022-09-19T02:01:04.071Z,51.216187
2022-09-19T02:02:04.060Z,51.216148
2022-09-19T02:03:04.030Z,51.216423
2022-09-19T02:04:04.207Z,51.216331
2022-09-19T02:05:03.999Z,51.216263
2022-09-19T02:06:03.986Z,51.216042
2022-09-19T02:07:03.978Z,51.215885
2022-09-19T02:08:03.979Z,51.216141
2022-09-19T02:09:03.987Z,51.216099
2022-09-19T02:10:03.967Z,51.216110
2022-09-19T02:11:03.958Z,51.216228
2022-09-19T02:12:03.951Z,51.216362
2022-09-19T02:13:03.946Z,51.216030
2022-09-19T02:14:03.962Z,51.216038
2022-09-19T02:15:03.930Z,51.216053
2022-09-19T02:16:03.967Z,51.216167
2022-09-19T02:17:03.919Z,51.216141
2022-09-19T02:18:03.910Z,51.216366
2022-09-19T02:19:03.933Z,51.216042
2022-09-19T02:20:04.008Z,51.216026
2022-09-19T02:21:03.915Z,51.216160
2022-09-19T02:22:03.883Z,51.216194
2022-09-19T02:23:03.874Z,51.216114
2022-09-19T02:24:03.874Z,51.216152
2022-09-19T02:25:03.870Z,51.216228
2022-09-19T02:26:03.864Z,51.216190
2022-09-19T02:27:03.859Z,51.216206
2022-09-19T02:28:03.842Z,51.216282
2022-09-19T02:29:03.839Z,51.216171
2022-09-19T02:30:03.851Z,51.216133
2022-09-19T02:31:03.823Z,51.216114
2022-09-19T02:32:03.822Z,51.216187
2022-09-19T02:33:03.810Z,51.216053
2022-09-19T02:34:03.938Z,51.215958
2022-09-19T02:35:03.813Z,51.215969
2022-09-19T02:36:03.787Z,51.216038
2022-09-19T02:37:03.784Z,51.216068
2022-09-19T02:38:03.770Z,51.215988
2022-09-19T02:39:03.759Z,51.216137
2022-09-19T02:40:03.818Z,51.216061
2022-09-19T02:41:03.773Z,51.216084
2022-09-19T02:42:03.745Z,51.216099
2022-09-19T02:43:03.734Z,51.216160
2022-09-19T02:44:03.723Z,51.216114
2022-09-19T02:45:03.718Z,51.216042
2022-09-19T02:46:03.767Z,51.216034
2022-09-19T02:47:03.716Z,51.216103
2022-09-19T02:48:03.709Z,51.216068
2022-09-19T02:49:03.769Z,51.216045
2022-09-19T02:50:03.686Z,51.216125
2022-09-19T02:51:03.686Z,51.216293
2022-09-19T02:52:03.781Z,51.216293
2022-09-19T02:53:03.666Z,51.216450
2022-09-19T02:54:03.653Z,51.216362
2022-09-19T02:55:03.655Z,51.216232
2022-09-19T02:56:03.646Z,51.216198
2022-09-19T02:57:03.658Z,51.216183
2022-09-19T02:58:03.625Z,51.216152
2022-09-19T02:59:03.630Z,51.216217
2022-09-19T03:00:03.641Z,51.216248
2022-09-19T03:01:03.733Z,51.216255
2022-09-19T03:02:03.672Z,51.216400
2022-09-19T03:03:03.614Z,51.216366
2022-09-19T03:04:03.657Z,51.216423
2022-09-19T03:05:03.587Z,51.216549
2022-09-19T03:06:03.581Z,51.216602
2022-09-19T03:07:03.573Z,51.216438
2022-09-19T03:08:03.666Z,51.216488
2022-09-19T03:09:03.555Z,51.216282
2022-09-19T03:10:03.554Z,51.216457
2022-09-19T03:11:03.547Z,51.216423
2022-09-19T03:12:03.584Z,51.216354
2022-09-19T03:13:03.571Z,51.216537
2022-09-19T03:14:03.529Z,51.216557
2022-09-19T03:15:03.525Z,51.216595
2022-09-19T03:16:03.554Z,51.216541
2022-09-19T03:17:03.501Z,51.216469
2022-09-19T03:18:03.514Z,51.216393
2022-09-19T03:19:03.490Z,51.216389
2022-09-19T03:20:03.503Z,51.216312
2022-09-19T03:21:03.480Z,51.216457
2022-09-19T03:22:03.462Z,51.216442
2022-09-19T03:23:03.470Z,51.216507
2022-09-19T03:24:03.611Z,51.216515
2022-09-19T03:25:03.453Z,51.216438
2022-09-19T03:26:03.452Z,51.216381
2022-09-19T03:27:03.429Z,51.216255
2022-09-19T03:28:03.441Z,51.216270
2022-09-19T03:29:03.425Z,51.216259
2022-09-19T03:30:03.433Z,51.216232
2022-09-19T03:31:03.405Z,51.216190
2022-09-19T03:32:03.407Z,51.215942
2022-09-19T03:33:03.389Z,51.216022
2022-09-19T03:34:03.426Z,51.215973
2022-09-19T03:35:03.391Z,51.215889
2022-09-19T03:36:03.373Z,51.215965
2022-09-19T03:37:03.374Z,51.216003
2022-09-19T03:38:03.366Z,51.216152
2022-09-19T03:39:03.345Z,51.216167
2022-09-19T03:40:04.527Z,51.216236
2022-09-19T03:41:03.338Z,51.216309
2022-09-19T03:42:03.341Z,51.216297
2022-09-19T03:43:03.327Z,51.216236
2022-09-19T03:44:03.321Z,51.216202
2022-09-19T03:45:03.321Z,51.216038
2022-09-19T03:46:03.378Z,51.216030
2022-09-19T03:47:03.305Z,51.216248
2022-09-19T03:48:03.297Z,51.216137
2022-09-19T03:49:03.302Z,51.216171
2022-09-19T03:50:03.282Z,51.216389
2022-09-19T03:51:03.293Z,51.216305
2022-09-19T03:52:03.270Z,51.216141
2022-09-19T03:53:03.262Z,51.216156
2022-09-19T03:54:03.251Z,51.216160
2022-09-19T03:55:03.265Z,51.216183
2022-09-19T03:56:03.332Z,51.216194
2022-09-19T03:57:03.229Z,51.216114
2022-09-19T03:58:03.223Z,51.216110
2022-09-19T03:59:03.217Z,51.216091
2022-09-19T04:00:03.212Z,51.215996
2022-09-19T04:01:03.327Z,51.216084
2022-09-19T04:02:03.221Z,51.216106
2022-09-19T04:03:03.192Z,51.216106
2022-09-19T04:04:03.208Z,51.216221
2022-09-19T04:05:03.179Z,51.216209
2022-09-19T04:06:03.193Z,51.216125
2022-09-19T04:07:03.165Z,51.216118
2022-09-19T04:08:03.156Z,51.216179
2022-09-19T04:09:03.157Z,51.216061
2022-09-19T04:10:03.158Z,51.216076
2022-09-19T04:11:03.129Z,51.216114
2022-09-19T04:12:06.146Z,51.216064
2022-09-19T04:13:04.148Z,51.216068
2022-09-19T04:14:03.120Z,51.216068
2022-09-19T04:15:03.121Z,51.216129
2022-09-19T04:16:03.153Z,51.216114
2022-09-19T04:17:21.588Z,51.216049
2022-09-19T04:18:05.092Z,51.215935
2022-09-19T04:19:03.156Z,51.216049
2022-09-19T04:20:03.072Z,51.215767
2022-09-19T04:21:03.077Z,51.216011
2022-09-19T04:22:03.065Z,51.216110
2022-09-19T04:23:03.058Z,51.216038
2022-09-19T04:24:03.053Z,51.216167
2022-09-19T04:25:03.049Z,51.216091
2022-09-19T04:26:03.063Z,51.216118
2022-09-19T04:27:03.036Z,51.216045
2022-09-19T04:28:03.121Z,51.216091
2022-09-19T04:29:03.021Z,51.216156
2022-09-19T04:30:03.009Z,51.216167
2022-09-19T04:31:03.015Z,51.216129
2022-09-19T04:32:03.025Z,51.216110
2022-09-19T04:33:02.985Z,51.216122
2022-09-19T04:34:03.072Z,51.216270
2022-09-19T04:35:02.985Z,51.216171
2022-09-19T04:36:03.009Z,51.216160
2022-09-19T04:37:02.969Z,51.216091
2022-09-19T04:38:02.965Z,51.216137
2022-09-19T04:39:02.957Z,51.216183
2022-09-19T04:40:02.981Z,51.216175
2022-09-19T04:41:02.945Z,51.216122
2022-09-19T04:42:02.960Z,51.216087
2022-09-19T04:43:02.931Z,51.216015
2022-09-19T04:44:03.019Z,51.216038
2022-09-19T04:45:02.924Z,51.216064
2022-09-19T04:46:02.978Z,51.216091
2022-09-19T04:47:02.900Z,51.216000
2022-09-19T04:48:02.899Z,51.216095
2022-09-19T04:49:02.913Z,51.216068
2022-09-19T04:50:05.004Z,51.216064
2022-09-19T04:51:03.888Z,51.216167
2022-09-19T04:52:02.857Z,51.216160
2022-09-19T04:53:02.857Z,51.216152
2022-09-19T04:54:02.850Z,51.216076
2022-09-19T04:55:03.896Z,51.216099
2022-09-19T04:56:02.845Z,51.216122
2022-09-19T04:57:02.844Z,51.215977
2022-09-19T04:58:02.818Z,51.216022
2022-09-19T04:59:02.816Z,51.215996
2022-09-19T05:00:02.919Z,51.216057
2022-09-19T05:01:02.824Z,51.216141
2022-09-19T05:02:02.875Z,51.216232
2022-09-19T05:03:02.796Z,51.216110
2022-09-19T05:04:02.784Z,51.216007
2022-09-19T05:05:02.776Z,51.216125
2022-09-19T05:06:02.779Z,51.216095
2022-09-19T05:07:02.784Z,51.216072
2022-09-19T05:08:02.760Z,51.216080
2022-09-19T05:09:02.753Z,51.216148
2022-09-19T05:10:02.739Z,51.216049
2022-09-19T05:11:02.748Z,51.216011
2022-09-19T05:12:02.744Z,51.216015
2022-09-19T05:13:02.721Z,51.216099
2022-09-19T05:14:02.792Z,51.216137
2022-09-19T05:15:02.712Z,51.216034
2022-09-19T05:16:02.905Z,51.215946
2022-09-19T05:17:02.687Z,51.215912
2022-09-19T05:18:02.692Z,51.215977
2022-09-19T05:19:02.675Z,51.215996
2022-09-19T05:20:02.675Z,51.216022
2022-09-19T05:21:02.695Z,51.216000
2022-09-19T05:22:02.668Z,51.215984
2022-09-19T05:23:02.654Z,51.216084
2022-09-19T05:24:02.643Z,51.216072
2022-09-19T05:25:02.648Z,51.216034
2022-09-19T05:26:02.647Z,51.216103
2022-09-19T05:27:02.624Z,51.216091
2022-09-19T05:28:02.635Z,51.216045
2022-09-19T05:29:02.608Z,51.216106
2022-09-19T05:30:02.620Z,51.216164
2022-09-19T05:31:02.606Z,51.216301
2022-09-19T05:32:02.724Z,51.216286
2022-09-19T05:33:04.334Z,51.216164
2022-09-19T05:34:02.594Z,51.216103
2022-09-19T05:35:02.579Z,51.216045
2022-09-19T05:36:02.567Z,51.216042
2022-09-19T05:37:02.575Z,51.215981
2022-09-19T05:38:02.563Z,51.216148
2022-09-19T05:39:02.548Z,51.216206
2022-09-19T05:40:03.631Z,51.216228
2022-09-19T05:41:02.551Z,51.216263
2022-09-19T05:42:02.535Z,51.216286
2022-09-19T05:43:02.539Z,51.216290
2022-09-19T05:44:02.557Z,51.216106
2022-09-19T05:45:02.531Z,51.216011
2022-09-19T05:46:02.504Z,51.216042
2022-09-19T05:47:02.554Z,51.216118
2022-09-19T05:48:02.594Z,51.216133
2022-09-19T05:49:02.491Z,51.216045
2022-09-19T05:50:02.487Z,51.216068
2022-09-19T05:51:02.471Z,51.216164
2022-09-19T05:52:02.475Z,51.216167
2022-09-19T05:53:02.463Z,51.216133
2022-09-19T05:54:02.461Z,51.216122
2022-09-19T05:55:02.453Z,51.216110
2022-09-19T05:56:02.451Z,51.216022
2022-09-19T05:57:02.447Z,51.216015
2022-09-19T05:58:02.444Z,51.216087
2022-09-19T05:59:02.447Z,51.216175
2022-09-19T06:00:02.421Z,51.216225
2022-09-19T06:01:02.499Z,51.216160
2022-09-19T06:02:02.474Z,51.215958
2022-09-19T06:03:03.417Z,51.215893
2022-09-19T06:04:02.662Z,51.215904
2022-09-19T06:05:02.399Z,51.216003
2022-09-19T06:06:02.394Z,51.216064
2022-09-19T06:07:02.371Z,51.216022
2022-09-19T06:08:02.371Z,51.216190
2022-09-19T06:09:02.367Z,51.216209
2022-09-19T06:10:02.382Z,51.216179
2022-09-19T06:11:02.345Z,51.216125
2022-09-19T06:12:02.363Z,51.216122
2022-09-19T06:13:02.335Z,51.216179
2022-09-19T06:14:02.332Z,51.216164
2022-09-19T06:15:02.343Z,51.216190
2022-09-19T06:16:02.338Z,51.216141
2022-09-19T06:17:02.315Z,51.215965
2022-09-19T06:18:02.310Z,51.216003
2022-09-19T06:19:02.301Z,51.216003
2022-09-19T06:20:02.400Z,51.216080
2022-09-19T06:21:02.308Z,51.216103
2022-09-19T06:22:02.286Z,51.216110
2022-09-19T06:23:02.283Z,51.216068
2022-09-19T06:24:02.276Z,51.216015
2022-09-19T06:25:02.274Z,51.216038
2022-09-19T06:26:02.276Z,51.216106
2022-09-19T06:27:02.252Z,51.216045
2022-09-19T06:28:02.244Z,51.216022
2022-09-19T06:29:02.246Z,51.216091
2022-09-19T06:30:02.228Z,51.216061
2022-09-19T06:31:02.263Z,51.216030
2022-09-19T06:32:02.288Z,51.216053
2022-09-19T06:33:02.211Z,51.216007
2022-09-19T06:34:02.207Z,51.216087
2022-09-19T06:35:02.200Z,51.216038
2022-09-19T06:36:02.287Z,51.216049
2022-09-19T06:37:05.177Z,51.216042
2022-09-19T06:38:03.189Z,51.216068
2022-09-19T06:39:02.271Z,51.216103
2022-09-19T06:40:02.281Z,51.216099
2022-09-19T06:41:03.164Z,51.216114
2022-09-19T06:42:02.171Z,51.216091
2022-09-19T06:43:02.159Z,51.216114
2022-09-19T06:44:02.243Z,51.216099
2022-09-19T06:45:02.143Z,51.216084
2022-09-19T06:46:02.233Z,51.216084
2022-09-19T06:47:02.147Z,51.216095
2022-09-19T06:48:02.135Z,51.216072
2022-09-19T06:49:02.119Z,51.216015
2022-09-19T06:50:02.126Z,51.216015
2022-09-19T06:51:02.108Z,51.216068
2022-09-19T06:52:02.186Z,51.216091
2022-09-19T06:53:02.101Z,51.216194
2022-09-19T06:54:02.080Z,51.216091
2022-09-19T06:55:02.079Z,51.216125
2022-09-19T06:56:02.075Z,51.216110
2022-09-19T06:57:02.060Z,51.216034
2022-09-19T06:58:02.206Z,51.216106
2022-09-19T06:59:02.124Z,51.216106
2022-09-19T07:00:02.078Z,51.216061
2022-09-19T07:01:02.113Z,51.216194
2022-09-19T07:02:02.090Z,51.216118
2022-09-19T07:03:02.044Z,51.216042
2022-09-19T07:04:02.014Z,51.216167
2022-09-19T07:05:02.011Z,51.216290
2022-09-19T07:06:02.002Z,51.216095
2022-09-19T07:07:02.002Z,51.216087
2022-09-19T07:08:02.101Z,51.216225
2022-09-19T07:09:01.991Z,51.216206
2022-09-19T07:10:01.975Z,51.216190
2022-09-19T07:11:02.015Z,51.216141
2022-09-19T07:12:01.968Z,51.216194
2022-09-19T07:13:01.956Z,51.216160
2022-09-19T07:14:01.953Z,51.216221
2022-09-19T07:15:01.974Z,51.216091
2022-09-19T07:16:02.004Z,51.216053
2022-09-19T07:17:01.939Z,51.216064
2022-09-19T07:18:01.924Z,51.216099
2022-09-19T07:19:01.938Z,51.216072
2022-09-19T07:20:01.946Z,51.216045
2022-09-19T07:21:01.915Z,51.215981
2022-09-19T07:22:01.907Z,51.216026
2022-09-19T07:23:01.904Z,51.216103
2022-09-19T07:24:02.008Z,51.216160
2022-09-19T07:25:01.887Z,51.216122
2022-09-19T07:26:01.894Z,51.216080
2022-09-19T07:27:01.874Z,51.216053
2022-09-19T07:28:04.395Z,51.216187
2022-09-19T07:29:02.872Z,51.216095
2022-09-19T07:30:01.874Z,51.216137
2022-09-19T07:31:01.866Z,51.216076
2022-09-19T07:32:01.975Z,51.216103
2022-09-19T07:33:01.855Z,51.216114
2022-09-19T07:34:05.002Z,51.216106
2022-09-19T07:35:02.838Z,51.216148
2022-09-19T07:36:06.417Z,51.216099
2022-09-19T07:37:02.815Z,51.216072
2022-09-19T07:38:01.850Z,51.216125
2022-09-19T07:39:01.804Z,51.216007
2022-09-19T07:40:06.006Z,51.216064
2022-09-19T07:41:03.898Z,51.215931
2022-09-19T07:42:01.798Z,51.216045
2022-09-19T07:43:01.796Z,51.215824
2022-09-19T07:44:01.787Z,51.215900
2022-09-19T07:45:04.749Z,51.215916
2022-09-19T07:46:03.876Z,51.216007
2022-09-19T07:47:01.751Z,51.216145
2022-09-19T07:48:01.751Z,51.216358
2022-09-19T07:49:01.747Z,51.216251
2022-09-19T07:50:01.742Z,51.216179
2022-09-19T07:51:01.741Z,51.216129
2022-09-19T07:52:01.728Z,51.216022
2022-09-19T07:53:01.722Z,51.216007
2022-09-19T07:54:01.714Z,51.216084
2022-09-19T07:55:01.711Z,51.216213
2022-09-19T07:56:01.706Z,51.216091
2022-09-19T07:57:01.694Z,51.216137
2022-09-19T07:58:01.702Z,51.216164
2022-09-19T07:59:01.678Z,51.216160
2022-09-19T08:00:01.678Z,51.216137
2022-09-19T08:01:01.737Z,51.216106
2022-09-19T08:02:01.671Z,51.216022
2022-09-19T08:03:01.646Z,51.216084
2022-09-19T08:04:01.643Z,51.216129
2022-09-19T08:05:01.668Z,51.216019
2022-09-19T08:06:01.630Z,51.216042
2022-09-19T08:07:01.623Z,51.216000
2022-09-19T08:08:01.610Z,51.216091
2022-09-19T08:09:01.603Z,51.216042
2022-09-19T08:10:01.619Z,51.216034
2022-09-19T08:11:01.606Z,51.216236
2022-09-19T08:12:01.687Z,51.216099
2022-09-19T08:13:01.575Z,51.216160
2022-09-19T08:14:01.636Z,51.216225
2022-09-19T08:15:01.598Z,51.216118
2022-09-19T08:16:03.386Z,51.216076
2022-09-19T08:17:02.589Z,51.215992
2022-09-19T08:18:01.554Z,51.216026
2022-09-19T08:19:01.528Z,51.216125
2022-09-19T08:20:02.526Z,51.216293
2022-09-19T08:21:01.511Z,51.216053
2022-09-19T08:22:01.518Z,51.215977
2022-09-19T08:23:01.518Z,51.216019
2022-09-19T08:24:01.506Z,51.216110
2022-09-19T08:25:01.511Z,51.216183
2022-09-19T08:26:01.495Z,51.216297
2022-09-19T08:27:01.470Z,51.216137
2022-09-19T08:28:01.593Z,51.216038
2022-09-19T08:29:01.463Z,51.216206
2022-09-19T08:30:01.460Z,51.216183
2022-09-19T08:31:01.471Z,51.216141
2022-09-19T08:32:01.526Z,51.216221
2022-09-19T08:33:01.451Z,51.216167
2022-09-19T08:34:01.438Z,51.216198
2022-09-19T08:35:01.434Z,51.216164
2022-09-19T08:36:01.422Z,51.216145
2022-09-19T08:37:01.414Z,51.216091
2022-09-19T08:38:01.430Z,51.216064
2022-09-19T08:39:01.398Z,51.216049
2022-09-19T08:40:01.464Z,51.216091
2022-09-19T08:41:01.381Z,51.216106
2022-09-19T08:42:01.362Z,51.216110
2022-09-19T08:43:01.379Z,51.216030
2022-09-19T08:44:01.368Z,51.216091
2022-09-19T08:45:01.362Z,51.216095
2022-09-19T08:46:01.380Z,51.216019
2022-09-19T08:47:01.352Z,51.216038
2022-09-19T08:48:01.343Z,51.216064
2022-09-19T08:49:01.372Z,51.216167
2022-09-19T08:50:01.329Z,51.216122
2022-09-19T08:51:01.315Z,51.216114
2022-09-19T08:52:01.318Z,51.216103
2022-09-19T08:53:01.307Z,51.216011
2022-09-19T08:54:01.326Z,51.216080
2022-09-19T08:55:01.299Z,51.216160
2022-09-19T08:56:01.302Z,51.216164
2022-09-19T08:57:01.273Z,51.216187
2022-09-19T08:58:01.277Z,51.216187
2022-09-19T08:59:01.277Z,51.216183
2022-09-19T09:00:01.354Z,51.216148
2022-09-19T09:01:01.325Z,51.216141
2022-09-19T09:02:22.687Z,51.216190
2022-09-19T09:03:08.655Z,51.216145
2022-09-19T09:04:03.373Z,51.216091
2022-09-19T09:05:01.246Z,51.216045
2022-09-19T09:06:01.218Z,51.216202
2022-09-19T09:07:01.213Z,51.216118
2022-09-19T09:08:01.214Z,51.216057
2022-09-19T09:09:02.994Z,51.216145
2022-09-19T09:10:01.213Z,51.216118
2022-09-19T09:11:01.197Z,51.215988
2022-09-19T09:12:01.185Z,51.215954
2022-09-19T09:13:07.920Z,51.216061
2022-09-19T09:14:01.289Z,51.216103
2022-09-19T09:15:19.306Z,51.216179
2022-09-19T09:16:03.312Z,51.216095
2022-09-19T09:17:01.170Z,51.216133
2022-09-19T09:18:01.142Z,51.216118
2022-09-19T09:19:03.564Z,51.216118
2022-09-19T09:20:01.164Z,51.216057
2022-09-19T09:21:01.126Z,51.216217
2022-09-19T09:22:01.118Z,51.216167
2022-09-19T09:23:01.110Z,51.216141
2022-09-19T09:24:23.117Z,51.216125
2022-09-19T09:25:03.103Z,51.216145
2022-09-19T09:26:01.103Z,51.216164
2022-09-19T09:27:01.082Z,51.216167
2022-09-19T09:28:01.069Z,51.216091
2022-09-19T09:29:01.067Z,51.216042
2022-09-19T09:30:01.066Z,51.216068
2022-09-19T09:31:01.051Z,51.216167
2022-09-19T09:32:01.316Z,51.216270
2022-09-19T09:33:01.047Z,51.216198
2022-09-19T09:34:01.047Z,51.216099
2022-09-19T09:35:01.021Z,51.215969
2022-09-19T09:36:01.026Z,51.216042
2022-09-19T09:37:01.032Z,51.216141
2022-09-19T09:38:01.018Z,51.216129
2022-09-19T09:39:03.865Z,51.216267
2022-09-19T09:40:01.138Z,51.216167
2022-09-19T09:41:00.997Z,51.216099
2022-09-19T09:42:00.982Z,51.216030
2022-09-19T09:43:00.989Z,51.216011
2022-09-19T09:44:00.972Z,51.216091
2022-09-19T09:45:00.977Z,51.216095
2022-09-19T09:46:01.030Z,51.216278
2022-09-19T09:47:00.962Z,51.216251
2022-09-19T09:48:00.950Z,51.216206
2022-09-19T09:49:00.945Z,51.216160
2022-09-19T09:50:00.933Z,51.215961
2022-09-19T09:51:00.930Z,51.215981
2022-09-19T09:52:00.931Z,51.215816
2022-09-19T09:53:00.933Z,51.215809
2022-09-19T09:54:00.914Z,51.215733
2022-09-19T09:55:00.902Z,51.215816
2022-09-19T09:56:00.901Z,51.215858
2022-09-19T09:57:00.937Z,51.216099
2022-09-19T09:58:00.885Z,51.216167
2022-09-19T09:59:00.877Z,51.216187
2022-09-19T10:00:00.877Z,51.216316
2022-09-19T10:01:00.939Z,51.216293
2022-09-19T10:02:00.944Z,51.216209
2022-09-19T10:03:03.621Z,51.216213
2022-09-19T10:04:01.970Z,51.216156
2022-09-19T10:05:01.830Z,51.216076
2022-09-19T10:06:00.838Z,51.216122
2022-09-19T10:07:00.854Z,51.216141
2022-09-19T10:08:00.825Z,51.216225
2022-09-19T10:09:01.733Z,51.216309
2022-09-19T10:10:00.807Z,51.216389
2022-09-19T10:11:00.945Z,51.216141
2022-09-19T10:13:02.848Z,51.216434
2022-09-19T10:14:00.777Z,51.216492
2022-09-19T10:15:05.347Z,51.216412
2022-09-19T10:16:02.836Z,51.216301
2022-09-19T10:17:00.762Z,51.216125
2022-09-19T10:18:00.774Z,51.216084
2022-09-19T10:19:00.758Z,51.216125
2022-09-19T10:20:00.845Z,51.216190
2022-09-19T10:21:00.741Z,51.216084
2022-09-19T10:22:00.758Z,51.216110
2022-09-19T10:23:00.750Z,51.216198
2022-09-19T10:24:00.742Z,51.216164
2022-09-19T10:25:00.722Z,51.216179
2022-09-19T10:26:00.752Z,51.216084
2022-09-19T10:27:00.704Z,51.216011
2022-09-19T10:28:00.697Z,51.215851
2022-09-19T10:29:00.703Z,51.215668
2022-09-19T10:30:00.686Z,51.215706
2022-09-19T10:31:00.680Z,51.215809
2022-09-19T10:32:00.748Z,51.215965
2022-09-19T10:33:00.663Z,51.216114
2022-09-19T10:34:00.686Z,51.216091
2022-09-19T10:35:00.653Z,51.216114
2022-09-19T10:36:00.744Z,51.216068
2022-09-19T10:37:00.633Z,51.216057
2022-09-19T10:38:00.628Z,51.216099
2022-09-19T10:39:00.640Z,51.216152
2022-09-19T10:40:00.678Z,51.216045
2022-09-19T10:41:00.613Z,51.216110
2022-09-19T10:42:00.600Z,51.216026
2022-09-19T10:43:00.626Z,51.216049
2022-09-19T10:44:00.590Z,51.216057
2022-09-19T10:45:00.616Z,51.216072
2022-09-19T10:46:00.678Z,51.216114
2022-09-19T10:47:00.565Z,51.216038
2022-09-19T10:48:00.572Z,51.216103
2022-09-19T10:49:00.561Z,51.216026
2022-09-19T10:50:00.565Z,51.216022
2022-09-19T10:51:00.560Z,51.215961
2022-09-19T10:52:00.542Z,51.216160
2022-09-19T10:53:00.544Z,51.216122
2022-09-19T10:54:00.554Z,51.216103
2022-09-19T10:55:01.845Z,51.215923
2022-09-19T10:56:00.528Z,51.215855
2022-09-19T10:57:00.514Z,51.215923
2022-09-19T10:58:00.645Z,51.215839
2022-09-19T10:59:00.503Z,51.215961
2022-09-19T11:00:00.504Z,51.215927
2022-09-19T11:01:00.649Z,51.215939
2022-09-19T11:02:00.569Z,51.215961
2022-09-19T11:03:00.485Z,51.216015
2022-09-19T11:04:00.480Z,51.216110
2022-09-19T11:05:00.473Z,51.216084
2022-09-19T11:06:00.479Z,51.216026
2022-09-19T11:07:00.448Z,51.216053
2022-09-19T11:08:01.552Z,51.216137
2022-09-19T11:09:00.460Z,51.216106
2022-09-19T11:10:00.467Z,51.216019
2022-09-19T11:11:00.445Z,51.216053
2022-09-19T11:12:00.433Z,51.216038
2022-09-19T11:13:00.433Z,51.216076
2022-09-19T11:14:00.437Z,51.216118
2022-09-19T11:15:00.425Z,51.216057
2022-09-19T11:16:00.400Z,51.216057
2022-09-19T11:17:01.561Z,51.215916
2022-09-19T11:18:01.397Z,51.215984
2022-09-19T11:19:00.408Z,51.215973
2022-09-19T11:20:00.389Z,51.215958
2022-09-19T11:21:00.388Z,51.215958
2022-09-19T11:22:00.384Z,51.216114
2022-09-19T11:23:00.366Z,51.216053
2022-09-19T11:24:00.368Z,51.215969
2022-09-19T11:25:00.372Z,51.215961